sensor_id;sensor_type;location;lat;lon;timestamp;pressure;altitude;pressure_sealevel;temperature;humidity
64792;BME280;51226;47.504;19.074;2023-03-20T00:00:52;100307.09;;;11.18;45.50
64792;BME280;51226;47.504;19.074;2023-03-20T00:03:56;100297.44;;;11.15;46.64
64792;BME280;51226;47.504;19.074;2023-03-20T00:06:59;100295.69;;;11.16;46.80
64792;BME280;51226;47.504;19.074;2023-03-20T00:10:03;100296.62;;;11.16;46.35
64792;BME280;51226;47.504;19.074;2023-03-20T00:13:11;100289.44;;;11.10;45.77
64792;BME280;51226;47.504;19.074;2023-03-20T00:16:16;100297.22;;;11.09;45.96
64792;BME280;51226;47.504;19.074;2023-03-20T00:19:22;100286.78;;;11.09;46.42
64792;BME280;51226;47.504;19.074;2023-03-20T00:22:25;100297.16;;;11.07;46.79
64792;BME280;51226;47.504;19.074;2023-03-20T00:25:30;100289.34;;;11.07;45.71
64792;BME280;51226;47.504;19.074;2023-03-20T00:28:38;100290.12;;;11.05;46.48
64792;BME280;51226;47.504;19.074;2023-03-20T00:31:42;100284.91;;;11.05;46.14
64792;BME280;51226;47.504;19.074;2023-03-20T00:34:45;100298.66;;;11.01;46.05
64792;BME280;51226;47.504;19.074;2023-03-20T00:37:49;100292.53;;;10.99;46.28
64792;BME280;51226;47.504;19.074;2023-03-20T00:40:52;100295.13;;;10.99;45.83
64792;BME280;51226;47.504;19.074;2023-03-20T00:44:00;100289.78;;;10.96;47.27
64792;BME280;51226;47.504;19.074;2023-03-20T00:47:25;100294.97;;;10.94;46.63
64792;BME280;51226;47.504;19.074;2023-03-20T00:50:30;100281.84;;;10.92;46.22
64792;BME280;51226;47.504;19.074;2023-03-20T00:53:33;100287.06;;;10.91;46.66
64792;BME280;51226;47.504;19.074;2023-03-20T00:56:39;100291.41;;;10.92;47.45
64792;BME280;51226;47.504;19.074;2023-03-20T01:00:17;100290.59;;;10.93;47.01
64792;BME280;51226;47.504;19.074;2023-03-20T01:03:22;100287.94;;;10.91;45.50
64792;BME280;51226;47.504;19.074;2023-03-20T01:06:25;100289.59;;;10.89;46.14
64792;BME280;51226;47.504;19.074;2023-03-20T01:09:30;100290.59;;;10.93;46.04
64792;BME280;51226;47.504;19.074;2023-03-20T01:12:33;100294.81;;;10.89;46.29
64792;BME280;51226;47.504;19.074;2023-03-20T01:15:36;100295.53;;;10.85;46.53
64792;BME280;51226;47.504;19.074;2023-03-20T01:18:39;100294.91;;;10.92;45.15
64792;BME280;51226;47.504;19.074;2023-03-20T01:21:42;100290.44;;;10.88;46.08
64792;BME280;51226;47.504;19.074;2023-03-20T01:24:45;100288.59;;;10.86;45.93
64792;BME280;51226;47.504;19.074;2023-03-20T01:27:50;100292.81;;;10.82;46.36
64792;BME280;51226;47.504;19.074;2023-03-20T01:30:54;100294.37;;;10.77;45.72
64792;BME280;51226;47.504;19.074;2023-03-20T01:33:57;100287.41;;;10.76;46.02
64792;BME280;51226;47.504;19.074;2023-03-20T01:37:00;100281.16;;;10.72;46.79
64792;BME280;51226;47.504;19.074;2023-03-20T01:40:08;100283.00;;;10.75;46.63
64792;BME280;51226;47.504;19.074;2023-03-20T01:43:17;100274.34;;;10.76;46.17
64792;BME280;51226;47.504;19.074;2023-03-20T01:46:27;100266.41;;;10.73;47.24
64792;BME280;51226;47.504;19.074;2023-03-20T01:53:22;100268.13;;;10.72;46.22
64792;BME280;51226;47.504;19.074;2023-03-20T01:56:29;100265.56;;;10.74;45.45
64792;BME280;51226;47.504;19.074;2023-03-20T01:59:42;100264.50;;;10.69;46.45
64792;BME280;51226;47.504;19.074;2023-03-20T02:02:47;100263.91;;;10.76;45.15
64792;BME280;51226;47.504;19.074;2023-03-20T02:05:51;100269.97;;;10.75;45.21
64792;BME280;51226;47.504;19.074;2023-03-20T02:08:54;100271.34;;;10.65;46.25
64792;BME280;51226;47.504;19.074;2023-03-20T02:11:58;100269.59;;;10.64;46.17
64792;BME280;51226;47.504;19.074;2023-03-20T02:15:03;100271.53;;;10.70;45.40
64792;BME280;51226;47.504;19.074;2023-03-20T02:18:10;100268.69;;;10.64;46.79
64792;BME280;51226;47.504;19.074;2023-03-20T02:24:59;100262.53;;;10.62;45.97
64792;BME280;51226;47.504;19.074;2023-03-20T02:42:37;100250.22;;;10.57;46.28
64792;BME280;51226;47.504;19.074;2023-03-20T02:49:00;100248.31;;;10.53;46.54
64792;BME280;51226;47.504;19.074;2023-03-20T02:52:31;100235.22;;;10.52;45.99
64792;BME280;51226;47.504;19.074;2023-03-20T02:55:38;100242.19;;;10.51;46.20
64792;BME280;51226;47.504;19.074;2023-03-20T03:02:08;100238.47;;;10.45;46.31
64792;BME280;51226;47.504;19.074;2023-03-20T03:05:20;100239.22;;;10.42;46.52
64792;BME280;51226;47.504;19.074;2023-03-20T03:08:27;100235.69;;;10.40;46.46
64792;BME280;51226;47.504;19.074;2023-03-20T03:11:35;100239.97;;;10.38;46.25
64792;BME280;51226;47.504;19.074;2023-03-20T03:14:48;100253.06;;;10.40;45.70
64792;BME280;51226;47.504;19.074;2023-03-20T03:17:54;100246.00;;;10.37;45.98
64792;BME280;51226;47.504;19.074;2023-03-20T03:20:59;100250.84;;;10.28;46.76
64792;BME280;51226;47.504;19.074;2023-03-20T03:24:05;100246.41;;;10.25;46.45
64792;BME280;51226;47.504;19.074;2023-03-20T03:30:26;100249.75;;;10.21;46.78
64792;BME280;51226;47.504;19.074;2023-03-20T03:33:33;100248.75;;;10.17;46.37
64792;BME280;51226;47.504;19.074;2023-03-20T03:36:47;100253.72;;;10.11;46.94
64792;BME280;51226;47.504;19.074;2023-03-20T03:43:35;100253.34;;;10.02;47.50
64792;BME280;51226;47.504;19.074;2023-03-20T03:47:06;100256.81;;;10.01;47.28
64792;BME280;51226;47.504;19.074;2023-03-20T03:50:20;100258.47;;;9.99;47.81
64792;BME280;51226;47.504;19.074;2023-03-20T03:53:30;100267.22;;;10.01;46.82
64792;BME280;51226;47.504;19.074;2023-03-20T03:56:36;100266.22;;;9.97;47.74
64792;BME280;51226;47.504;19.074;2023-03-20T03:59:43;100271.37;;;9.96;47.68
64792;BME280;51226;47.504;19.074;2023-03-20T04:02:50;100269.53;;;9.93;47.72
64792;BME280;51226;47.504;19.074;2023-03-20T04:05:57;100270.31;;;9.91;47.53
64792;BME280;51226;47.504;19.074;2023-03-20T04:09:00;100278.06;;;9.89;47.46
64792;BME280;51226;47.504;19.074;2023-03-20T04:12:04;100282.28;;;9.86;47.90
64792;BME280;51226;47.504;19.074;2023-03-20T04:15:07;100272.59;;;9.83;48.04
64792;BME280;51226;47.504;19.074;2023-03-20T04:18:15;100281.25;;;9.82;48.17
64792;BME280;51226;47.504;19.074;2023-03-20T04:21:18;100280.38;;;9.81;47.90
64792;BME280;51226;47.504;19.074;2023-03-20T04:24:22;100277.56;;;9.77;48.48
64792;BME280;51226;47.504;19.074;2023-03-20T04:27:25;100285.31;;;9.75;47.69
64792;BME280;51226;47.504;19.074;2023-03-20T04:30:28;100281.72;;;9.72;47.62
64792;BME280;51226;47.504;19.074;2023-03-20T04:33:36;100271.06;;;9.66;48.09
64792;BME280;51226;47.504;19.074;2023-03-20T04:36:40;100280.56;;;9.65;48.19
64792;BME280;51226;47.504;19.074;2023-03-20T04:39:43;100286.62;;;9.64;48.39
64792;BME280;51226;47.504;19.074;2023-03-20T04:42:46;100284.03;;;9.64;48.95
64792;BME280;51226;47.504;19.074;2023-03-20T04:45:49;100290.12;;;9.64;48.47
64792;BME280;51226;47.504;19.074;2023-03-20T04:48:52;100281.28;;;9.61;48.88
64792;BME280;51226;47.504;19.074;2023-03-20T04:51:55;100295.13;;;9.60;48.55
64792;BME280;51226;47.504;19.074;2023-03-20T04:55:01;100274.16;;;9.57;48.75
64792;BME280;51226;47.504;19.074;2023-03-20T04:58:04;100277.63;;;9.56;48.79
64792;BME280;51226;47.504;19.074;2023-03-20T05:01:07;100293.25;;;9.56;49.14
64792;BME280;51226;47.504;19.074;2023-03-20T05:04:10;100294.00;;;9.53;48.63
64792;BME280;51226;47.504;19.074;2023-03-20T05:07:13;100297.44;;;9.52;48.42
64792;BME280;51226;47.504;19.074;2023-03-20T05:10:18;100295.13;;;9.60;48.09
64792;BME280;51226;47.504;19.074;2023-03-20T05:13:21;100294.13;;;9.56;48.71
64792;BME280;51226;47.504;19.074;2023-03-20T05:16:24;100301.87;;;9.55;49.25
64792;BME280;51226;47.504;19.074;2023-03-20T05:19:29;100304.41;;;9.53;48.70
64792;BME280;51226;47.504;19.074;2023-03-20T05:22:32;100303.78;;;9.59;48.56
64792;BME280;51226;47.504;19.074;2023-03-20T05:25:35;100301.87;;;9.55;49.51
64792;BME280;51226;47.504;19.074;2023-03-20T05:28:38;100309.94;;;9.61;48.74
64792;BME280;51226;47.504;19.074;2023-03-20T05:31:42;100316.09;;;9.63;49.02
64792;BME280;51226;47.504;19.074;2023-03-20T05:34:44;100318.81;;;9.66;49.09
64792;BME280;51226;47.504;19.074;2023-03-20T05:37:50;100309.41;;;9.70;48.73
64792;BME280;51226;47.504;19.074;2023-03-20T05:40:57;100316.50;;;9.74;49.04
64792;BME280;51226;47.504;19.074;2023-03-20T05:44:02;100319.81;;;9.91;48.10
64792;BME280;51226;47.504;19.074;2023-03-20T05:47:06;100307.41;;;9.85;48.68
64792;BME280;51226;47.504;19.074;2023-03-20T05:50:11;100312.50;;;9.82;49.34
64792;BME280;51226;47.504;19.074;2023-03-20T05:53:14;100306.72;;;9.89;48.79
64792;BME280;51226;47.504;19.074;2023-03-20T05:56:18;100315.72;;;9.97;48.29
64792;BME280;51226;47.504;19.074;2023-03-20T05:59:21;100319.63;;;10.09;48.77
64792;BME280;51226;47.504;19.074;2023-03-20T06:02:25;100316.31;;;10.13;48.39
64792;BME280;51226;47.504;19.074;2023-03-20T06:05:28;100322.72;;;10.21;47.82
64792;BME280;51226;47.504;19.074;2023-03-20T06:08:31;100331.09;;;10.14;48.65
64792;BME280;51226;47.504;19.074;2023-03-20T06:11:41;100340.84;;;10.18;48.40
64792;BME280;51226;47.504;19.074;2023-03-20T06:14:43;100338.34;;;10.21;48.74
64792;BME280;51226;47.504;19.074;2023-03-20T06:17:47;100339.47;;;10.28;48.28
64792;BME280;51226;47.504;19.074;2023-03-20T06:20:54;100339.78;;;10.35;48.15
64792;BME280;51226;47.504;19.074;2023-03-20T06:23:57;100348.97;;;10.48;47.92
64792;BME280;51226;47.504;19.074;2023-03-20T06:27:02;100332.78;;;10.57;47.76
64792;BME280;51226;47.504;19.074;2023-03-20T06:30:06;100340.94;;;10.66;47.28
64792;BME280;51226;47.504;19.074;2023-03-20T06:33:10;100333.62;;;10.80;46.69
64792;BME280;51226;47.504;19.074;2023-03-20T06:36:15;100336.56;;;10.89;46.44
64792;BME280;51226;47.504;19.074;2023-03-20T06:39:18;100331.84;;;11.03;45.61
64792;BME280;51226;47.504;19.074;2023-03-20T06:42:22;100334.91;;;11.17;45.94
64792;BME280;51226;47.504;19.074;2023-03-20T06:45:25;100338.25;;;11.39;45.29
64792;BME280;51226;47.504;19.074;2023-03-20T06:48:29;100341.19;;;11.48;44.40
64792;BME280;51226;47.504;19.074;2023-03-20T06:51:32;100345.69;;;11.79;43.78
64792;BME280;51226;47.504;19.074;2023-03-20T06:54:35;100346.88;;;11.89;43.51
64792;BME280;51226;47.504;19.074;2023-03-20T06:57:38;100344.50;;;11.95;44.26
64792;BME280;51226;47.504;19.074;2023-03-20T07:00:41;100335.37;;;12.10;43.31
64792;BME280;51226;47.504;19.074;2023-03-20T07:03:45;100344.34;;;12.19;43.00
64792;BME280;51226;47.504;19.074;2023-03-20T07:06:48;100353.44;;;12.31;43.70
64792;BME280;51226;47.504;19.074;2023-03-20T07:09:52;100337.34;;;12.47;43.23
64792;BME280;51226;47.504;19.074;2023-03-20T07:12:55;100337.97;;;12.69;42.18
64792;BME280;51226;47.504;19.074;2023-03-20T07:16:02;100350.06;;;12.95;42.07
64792;BME280;51226;47.504;19.074;2023-03-20T07:19:07;100338.78;;;13.30;40.64
64792;BME280;51226;47.504;19.074;2023-03-20T07:22:19;100346.34;;;13.52;40.35
64792;BME280;51226;47.504;19.074;2023-03-20T07:25:23;100350.88;;;13.58;40.14
64792;BME280;51226;47.504;19.074;2023-03-20T07:28:44;100341.13;;;13.89;39.17
64792;BME280;51226;47.504;19.074;2023-03-20T07:31:48;100347.66;;;14.05;38.31
64792;BME280;51226;47.504;19.074;2023-03-20T07:34:52;100343.84;;;14.30;37.66
64792;BME280;51226;47.504;19.074;2023-03-20T07:37:55;100344.22;;;14.49;37.73
64792;BME280;51226;47.504;19.074;2023-03-20T07:41:00;100338.81;;;14.82;38.81
64792;BME280;51226;47.504;19.074;2023-03-20T07:44:04;100341.97;;;15.10;36.87
64792;BME280;51226;47.504;19.074;2023-03-20T07:47:11;100336.72;;;15.60;35.24
64792;BME280;51226;47.504;19.074;2023-03-20T07:50:14;100336.19;;;15.80;35.33
64792;BME280;51226;47.504;19.074;2023-03-20T07:53:17;100340.69;;;15.87;34.60
64792;BME280;51226;47.504;19.074;2023-03-20T07:56:22;100338.91;;;15.84;34.75
64792;BME280;51226;47.504;19.074;2023-03-20T07:59:25;100343.06;;;16.28;35.44
64792;BME280;51226;47.504;19.074;2023-03-20T08:02:28;100333.13;;;17.58;33.09
64792;BME280;51226;47.504;19.074;2023-03-20T08:05:32;100332.31;;;19.52;29.61
64792;BME280;51226;47.504;19.074;2023-03-20T08:08:37;100339.88;;;21.17;28.64
64792;BME280;51226;47.504;19.074;2023-03-20T08:11:41;100334.81;;;21.97;25.21
64792;BME280;51226;47.504;19.074;2023-03-20T08:14:43;100343.31;;;22.35;25.30
64792;BME280;51226;47.504;19.074;2023-03-20T08:17:47;100345.72;;;22.55;24.43
64792;BME280;51226;47.504;19.074;2023-03-20T08:20:49;100338.00;;;23.06;24.57
64792;BME280;51226;47.504;19.074;2023-03-20T08:23:53;100337.91;;;23.14;24.06
64792;BME280;51226;47.504;19.074;2023-03-20T08:26:56;100340.84;;;22.92;24.39
64792;BME280;51226;47.504;19.074;2023-03-20T08:29:59;100348.28;;;22.66;23.70
64792;BME280;51226;47.504;19.074;2023-03-20T08:33:02;100341.50;;;22.38;24.22
64792;BME280;51226;47.504;19.074;2023-03-20T08:36:05;100340.75;;;22.24;24.26
64792;BME280;51226;47.504;19.074;2023-03-20T08:39:08;100342.59;;;22.16;24.12
64792;BME280;51226;47.504;19.074;2023-03-20T08:42:12;100342.81;;;21.93;24.33
64792;BME280;51226;47.504;19.074;2023-03-20T08:45:15;100344.69;;;21.83;24.93
64792;BME280;51226;47.504;19.074;2023-03-20T08:48:18;100347.34;;;21.80;24.78
64792;BME280;51226;47.504;19.074;2023-03-20T08:51:21;100345.59;;;21.82;24.74
64792;BME280;51226;47.504;19.074;2023-03-20T08:54:24;100342.06;;;21.78;24.99
64792;BME280;51226;47.504;19.074;2023-03-20T08:57:27;100353.72;;;21.62;27.05
64792;BME280;51226;47.504;19.074;2023-03-20T09:00:30;100354.59;;;21.61;25.09
64792;BME280;51226;47.504;19.074;2023-03-20T09:03:33;100352.91;;;21.54;25.85
64792;BME280;51226;47.504;19.074;2023-03-20T09:06:37;100356.41;;;21.56;25.67
64792;BME280;51226;47.504;19.074;2023-03-20T09:09:39;100350.06;;;21.77;24.59
64792;BME280;51226;47.504;19.074;2023-03-20T09:12:43;100364.12;;;21.87;24.94
64792;BME280;51226;47.504;19.074;2023-03-20T09:15:46;100364.84;;;22.07;24.24
64792;BME280;51226;47.504;19.074;2023-03-20T09:18:49;100367.56;;;21.98;24.91
64792;BME280;51226;47.504;19.074;2023-03-20T09:21:52;100354.12;;;22.12;23.87
64792;BME280;51226;47.504;19.074;2023-03-20T09:24:55;100362.09;;;22.15;24.12
64792;BME280;51226;47.504;19.074;2023-03-20T09:27:57;100362.78;;;22.37;23.85
64792;BME280;51226;47.504;19.074;2023-03-20T09:31:01;100367.22;;;22.36;24.08
64792;BME280;51226;47.504;19.074;2023-03-20T09:34:03;100368.12;;;22.37;25.29
64792;BME280;51226;47.504;19.074;2023-03-20T09:37:06;100351.38;;;22.29;23.48
64792;BME280;51226;47.504;19.074;2023-03-20T09:40:20;100355.75;;;22.30;24.33
64792;BME280;51226;47.504;19.074;2023-03-20T09:43:53;100348.87;;;22.10;24.05
64792;BME280;51226;47.504;19.074;2023-03-20T09:47:11;100351.56;;;22.06;24.79
64792;BME280;51226;47.504;19.074;2023-03-20T09:53:42;100349.72;;;22.14;23.89
64792;BME280;51226;47.504;19.074;2023-03-20T09:56:56;100353.09;;;22.31;24.55
64792;BME280;51226;47.504;19.074;2023-03-20T10:00:09;100348.41;;;22.52;23.76
64792;BME280;51226;47.504;19.074;2023-03-20T10:03:25;100352.59;;;22.74;23.54
64792;BME280;51226;47.504;19.074;2023-03-20T10:06:29;100354.38;;;22.75;23.85
64792;BME280;51226;47.504;19.074;2023-03-20T10:09:32;100347.56;;;22.50;23.76
64792;BME280;51226;47.504;19.074;2023-03-20T10:13:07;100353.19;;;22.20;23.89
64792;BME280;51226;47.504;19.074;2023-03-20T10:16:22;100350.59;;;22.11;25.05
64792;BME280;51226;47.504;19.074;2023-03-20T10:19:39;100348.69;;;22.26;24.91
64792;BME280;51226;47.504;19.074;2023-03-20T10:22:47;100347.69;;;22.41;24.41
64792;BME280;51226;47.504;19.074;2023-03-20T10:26:02;100349.34;;;22.51;24.30
64792;BME280;51226;47.504;19.074;2023-03-20T10:35:43;100344.06;;;22.46;24.93
64792;BME280;51226;47.504;19.074;2023-03-20T10:39:09;100335.91;;;22.60;25.56
64792;BME280;51226;47.504;19.074;2023-03-20T10:42:38;100336.91;;;22.53;24.33
64792;BME280;51226;47.504;19.074;2023-03-20T10:49:00;100337.50;;;22.75;25.20
64792;BME280;51226;47.504;19.074;2023-03-20T10:52:30;100327.53;;;22.92;24.76
64792;BME280;51226;47.504;19.074;2023-03-20T10:55:38;100329.47;;;22.80;24.42
64792;BME280;51226;47.504;19.074;2023-03-20T10:58:44;100319.38;;;23.05;23.68
64792;BME280;51226;47.504;19.074;2023-03-20T11:01:48;100312.72;;;22.74;24.30
64792;BME280;51226;47.504;19.074;2023-03-20T11:04:52;100320.84;;;22.64;27.44
64792;BME280;51226;47.504;19.074;2023-03-20T11:11:03;100311.37;;;22.39;26.37
64792;BME280;51226;47.504;19.074;2023-03-20T11:14:17;100307.06;;;22.29;26.77
64792;BME280;51226;47.504;19.074;2023-03-20T11:17:20;100296.56;;;22.17;26.14
64792;BME280;51226;47.504;19.074;2023-03-20T11:20:25;100303.75;;;22.07;25.40
64792;BME280;51226;47.504;19.074;2023-03-20T11:23:32;100294.16;;;21.91;25.77
64792;BME280;51226;47.504;19.074;2023-03-20T11:26:38;100295.13;;;21.83;27.12
64792;BME280;51226;47.504;19.074;2023-03-20T11:29:45;100296.97;;;21.77;26.98
64792;BME280;51226;47.504;19.074;2023-03-20T11:32:53;100292.50;;;21.80;26.88
64792;BME280;51226;47.504;19.074;2023-03-20T11:35:57;100287.31;;;21.67;26.54
64792;BME280;51226;47.504;19.074;2023-03-20T11:39:13;100279.44;;;21.57;25.61
64792;BME280;51226;47.504;19.074;2023-03-20T11:42:26;100273.28;;;21.54;25.61
64792;BME280;51226;47.504;19.074;2023-03-20T11:45:52;100273.28;;;21.52;25.67
64792;BME280;51226;47.504;19.074;2023-03-20T11:49:14;100272.56;;;21.30;27.48
64792;BME280;51226;47.504;19.074;2023-03-20T11:52:23;100268.19;;;21.18;26.30
64792;BME280;51226;47.504;19.074;2023-03-20T11:55:30;100271.63;;;21.34;26.62
64792;BME280;51226;47.504;19.074;2023-03-20T11:58:35;100280.56;;;21.21;27.67
64792;BME280;51226;47.504;19.074;2023-03-20T12:01:44;100261.03;;;21.34;26.99
64792;BME280;51226;47.504;19.074;2023-03-20T12:04:50;100262.56;;;21.61;26.75
64792;BME280;51226;47.504;19.074;2023-03-20T12:07:56;100268.66;;;21.73;27.03
64792;BME280;51226;47.504;19.074;2023-03-20T12:17:56;100252.53;;;21.94;26.24
64792;BME280;51226;47.504;19.074;2023-03-20T12:24:51;100248.75;;;22.17;28.17
64792;BME280;51226;47.504;19.074;2023-03-20T12:28:02;100251.28;;;22.25;25.74
64792;BME280;51226;47.504;19.074;2023-03-20T12:31:22;100251.22;;;22.34;24.65
64792;BME280;51226;47.504;19.074;2023-03-20T12:34:50;100248.00;;;22.02;25.72
64792;BME280;51226;47.504;19.074;2023-03-20T12:37:55;100243.59;;;22.00;26.42
64792;BME280;51226;47.504;19.074;2023-03-20T12:41:12;100247.25;;;21.88;26.29
64792;BME280;51226;47.504;19.074;2023-03-20T12:44:20;100249.12;;;21.80;26.17
64792;BME280;51226;47.504;19.074;2023-03-20T12:50:40;100239.59;;;21.60;26.72
64792;BME280;51226;47.504;19.074;2023-03-20T12:57:17;100242.12;;;21.73;26.22
64792;BME280;51226;47.504;19.074;2023-03-20T13:00:28;100235.19;;;21.59;26.27
64792;BME280;51226;47.504;19.074;2023-03-20T13:07:00;100227.16;;;21.64;26.53
64792;BME280;51226;47.504;19.074;2023-03-20T13:16:44;100226.50;;;21.39;28.67
64792;BME280;51226;47.504;19.074;2023-03-20T13:20:14;100211.41;;;21.44;26.50
64792;BME280;51226;47.504;19.074;2023-03-20T13:23:22;100207.13;;;21.31;26.89
64792;BME280;51226;47.504;19.074;2023-03-20T13:26:54;100210.56;;;21.40;26.77
64792;BME280;51226;47.504;19.074;2023-03-20T13:30:10;100215.62;;;21.67;26.17
64792;BME280;51226;47.504;19.074;2023-03-20T13:37:09;100211.28;;;21.61;26.82
64792;BME280;51226;47.504;19.074;2023-03-20T13:40:29;100214.81;;;21.60;28.50
64792;BME280;51226;47.504;19.074;2023-03-20T13:43:39;100200.66;;;21.61;29.31
64792;BME280;51226;47.504;19.074;2023-03-20T13:46:56;100195.88;;;21.95;26.68
64792;BME280;51226;47.504;19.074;2023-03-20T13:50:24;100190.53;;;21.97;27.40
64792;BME280;51226;47.504;19.074;2023-03-20T13:53:34;100195.81;;;21.98;26.74
64792;BME280;51226;47.504;19.074;2023-03-20T13:56:52;100189.06;;;21.70;27.48
64792;BME280;51226;47.504;19.074;2023-03-20T14:03:35;100195.47;;;21.45;27.78
64792;BME280;51226;47.504;19.074;2023-03-20T14:09:45;100193.91;;;21.24;27.89
64792;BME280;51226;47.504;19.074;2023-03-20T14:13:04;100189.59;;;21.08;29.98
64792;BME280;51226;47.504;19.074;2023-03-20T14:16:10;100184.38;;;21.02;28.82
64792;BME280;51226;47.504;19.074;2023-03-20T14:19:18;100185.41;;;20.81;29.04
64792;BME280;51226;47.504;19.074;2023-03-20T14:22:34;100179.25;;;20.77;29.94
64792;BME280;51226;47.504;19.074;2023-03-20T14:25:42;100184.56;;;20.77;29.75
64792;BME280;51226;47.504;19.074;2023-03-20T14:29:01;100185.50;;;20.71;29.22
64792;BME280;51226;47.504;19.074;2023-03-20T14:35:21;100179.44;;;20.43;29.77
64792;BME280;51226;47.504;19.074;2023-03-20T14:38:30;100180.41;;;20.28;30.50
64792;BME280;51226;47.504;19.074;2023-03-20T14:41:57;100177.81;;;20.14;30.91
64792;BME280;51226;47.504;19.074;2023-03-20T14:48:45;100184.09;;;19.93;32.23
64792;BME280;51226;47.504;19.074;2023-03-20T14:51:54;100181.50;;;19.76;31.75
64792;BME280;51226;47.504;19.074;2023-03-20T14:55:28;100174.38;;;19.89;31.63
64792;BME280;51226;47.504;19.074;2023-03-20T15:01:54;100177.06;;;19.66;33.04
64792;BME280;51226;47.504;19.074;2023-03-20T15:04:57;100173.53;;;19.64;32.94
64792;BME280;51226;47.504;19.074;2023-03-20T15:08:09;100166.50;;;19.61;32.30
64792;BME280;51226;47.504;19.074;2023-03-20T15:11:13;100166.53;;;19.51;34.00
64792;BME280;51226;47.504;19.074;2023-03-20T15:14:26;100166.53;;;19.58;32.46
64792;BME280;51226;47.504;19.074;2023-03-20T15:17:36;100157.72;;;19.46;32.81
64792;BME280;51226;47.504;19.074;2023-03-20T15:20:43;100168.34;;;19.15;33.37
64792;BME280;51226;47.504;19.074;2023-03-20T15:23:47;100168.34;;;18.96;34.44
64792;BME280;51226;47.504;19.074;2023-03-20T15:26:57;100171.84;;;18.89;33.94
64792;BME280;51226;47.504;19.074;2023-03-20T15:30:01;100163.94;;;18.83;34.48
64792;BME280;51226;47.504;19.074;2023-03-20T15:33:05;100162.13;;;18.63;34.66
64792;BME280;51226;47.504;19.074;2023-03-20T15:36:14;100165.63;;;18.61;35.83
64792;BME280;51226;47.504;19.074;2023-03-20T15:39:21;100172.69;;;18.59;34.77
64792;BME280;51226;47.504;19.074;2023-03-20T15:42:25;100165.63;;;18.48;35.43
64792;BME280;51226;47.504;19.074;2023-03-20T15:45:35;100170.00;;;18.40;35.54
64792;BME280;51226;47.504;19.074;2023-03-20T15:48:40;100167.41;;;18.49;35.08
64792;BME280;51226;47.504;19.074;2023-03-20T15:51:43;100170.84;;;18.30;36.16
64792;BME280;51226;47.504;19.074;2023-03-20T15:54:47;100166.41;;;18.15;36.12
64792;BME280;51226;47.504;19.074;2023-03-20T15:57:51;100157.62;;;18.14;36.58
64792;BME280;51226;47.504;19.074;2023-03-20T16:00:58;100155.81;;;18.04;37.39
64792;BME280;51226;47.504;19.074;2023-03-20T16:04:02;100162.84;;;18.07;38.02
64792;BME280;51226;47.504;19.074;2023-03-20T16:07:17;100160.25;;;18.19;36.58
64792;BME280;51226;47.504;19.074;2023-03-20T16:10:33;100161.12;;;18.12;36.84
64792;BME280;51226;47.504;19.074;2023-03-20T16:13:40;100168.97;;;17.96;37.36
64792;BME280;51226;47.504;19.074;2023-03-20T16:16:47;100180.31;;;17.85;38.01
64792;BME280;51226;47.504;19.074;2023-03-20T16:19:50;100172.34;;;17.77;39.04
64792;BME280;51226;47.504;19.074;2023-03-20T16:22:58;100175.84;;;17.70;38.81
64792;BME280;51226;47.504;19.074;2023-03-20T16:26:05;100185.47;;;17.60;38.56
64792;BME280;51226;47.504;19.074;2023-03-20T16:29:12;100188.88;;;17.45;38.70
64792;BME280;51226;47.504;19.074;2023-03-20T16:35:37;100186.97;;;17.22;39.46
64792;BME280;51226;47.504;19.074;2023-03-20T16:39:05;100196.53;;;17.10;40.72
64792;BME280;51226;47.504;19.074;2023-03-20T16:45:18;100201.72;;;17.02;39.41
64792;BME280;51226;47.504;19.074;2023-03-20T16:48:34;100193.78;;;16.96;39.57
64792;BME280;51226;47.504;19.074;2023-03-20T16:51:42;100193.56;;;16.79;40.28
64792;BME280;51226;47.504;19.074;2023-03-20T16:54:45;100202.25;;;16.68;40.33
64792;BME280;51226;47.504;19.074;2023-03-20T16:57:50;100209.66;;;16.25;60.99
64792;BME280;51226;47.504;19.074;2023-03-20T17:01:04;100216.81;;;15.70;65.10
64792;BME280;51226;47.504;19.074;2023-03-20T17:04:33;100214.63;;;15.41;66.12
64792;BME280;51226;47.504;19.074;2023-03-20T17:07:36;100214.41;;;15.26;63.32
64792;BME280;51226;47.504;19.074;2023-03-20T17:10:42;100206.34;;;15.15;62.23
64792;BME280;51226;47.504;19.074;2023-03-20T17:13:46;100214.13;;;15.09;58.05
64792;BME280;51226;47.504;19.074;2023-03-20T17:16:51;100219.38;;;15.09;55.06
64792;BME280;51226;47.504;19.074;2023-03-20T17:19:56;100212.28;;;15.05;56.92
64792;BME280;51226;47.504;19.074;2023-03-20T17:23:00;100210.63;;;15.10;49.74
64792;BME280;51226;47.504;19.074;2023-03-20T17:26:10;100215.78;;;15.02;51.98
64792;BME280;51226;47.504;19.074;2023-03-20T17:29:14;100219.13;;;14.95;50.53
64792;BME280;51226;47.504;19.074;2023-03-20T17:32:19;100226.03;;;14.90;54.98
64792;BME280;51226;47.504;19.074;2023-03-20T17:35:25;100225.09;;;14.86;52.51
64792;BME280;51226;47.504;19.074;2023-03-20T17:38:28;100217.13;;;14.81;49.59
64792;BME280;51226;47.504;19.074;2023-03-20T17:41:31;100231.09;;;14.77;53.67
64792;BME280;51226;47.504;19.074;2023-03-20T17:44:34;100219.75;;;14.78;49.04
64792;BME280;51226;47.504;19.074;2023-03-20T17:47:37;100225.88;;;14.79;49.54
64792;BME280;51226;47.504;19.074;2023-03-20T17:50:42;100225.72;;;14.71;53.36
64792;BME280;51226;47.504;19.074;2023-03-20T17:53:44;100227.41;;;14.68;52.04